EGNM/LBA METAR and TAF weather

Enter ICAO airport designator
Station Type Date Time Source
EGNM METAR 2022/11/30 18:20 UTC NOAA

EGNM 301820Z 16003KT 110V200 9000 SCT006 OVC008 04/03 Q1026


Station Type Date Time Source
EGNM Decoded METAR 2022/11/30 18:20 UTC NOAA

Leeds And Bradford, United Kingdom (EGNM) 53-52N 001-39W
Nov 30, 2022 - 01:20 PM EST / 2022.11.30 1820 UTC
Wind: from the SSE (160 degrees) at 3 MPH (3 KT) (direction variable):0
Visibility: 5 mile(s):0
Sky conditions: overcast
Temperature: 39 F (4 C)
Dew Point: 37 F (3 C)
Relative Humidity: 93%
Pressure (altimeter): 30.30 in. Hg (1026 hPa)
ob: EGNM 301820Z 16003KT 110V200 9000 SCT006 OVC008 04/03 Q1026
cycle: 18

Station Type Date Time Source
EGNM TAF 2022/11/30 18:09 UTC NOAA

TAF TAF EGNM 301655Z 3018/0118 17003KT 6000 OVC007
BECMG 3018/3021 3000 BR OVC003 PROB40
TEMPO 3021/0101 1200
TEMPO 0101/0111 0300 FG VV/// PROB30
TEMPO 0111/0118 1200 MIFG

Example: see airport list